Altamont, UT

5:48 AM MST on November 24, 2014 (GMT -0700)
MesoWest MOUNTAIN HOME UT US SCAN | Change Station
CLOSE
Current Station
Personal Weather Station
Location: Bluebell, UT
Elevation: 6950 ft
Nearby Weather Stations

Elev 6950 ft 40.37 °N, 110.40 °W | Updated 48 minutes ago

Snow
Snow
24 °F
Feels Like 13 °F
N
12
Wind Variable Wind from SW
Gusts 20.0 mph

Today
High -- | Low -- °F
--% Chance of Precip.
Yesterday
High -- | Low -- °F
Precip. -- in
7:18 AM 4:58 PM
Waxing Crescent, 5% visible
Pressure 30.16 in
Visibility 10.0 miles
Clouds Clear
Windchill 13 °F
Dew Point 17 °F
Humidity 76%
Rainfall -999.00 in
Snow Depth Not available.
UV 0 out of 12
Pollen .10 out of 12
Air Quality Not available.
Flu Activity Not available.
METAR KVEL 241153Z AUTO 00000KT 10SM CLR M06/M11 A3007 RMK AO2 SLP211 T10611111 11044 21067 53001

More Conditions Fewer Conditions

Pressure 30.16 in
Visibility 10.0 miles
Clouds Clear
Windchill 13 °F
Dew Point 17 °F
Humidity 76%
Rainfall -999.00 in
Snow Depth Not available.
UV 0 out of 12
Pollen .10 out of 12
Air Quality Not available.
Flu Activity Not available.
METAR KVEL 241153Z AUTO 00000KT 10SM CLR M06/M11 A3007 RMK AO2 SLP211 T10611111 11044 21067 53001

More Conditions Fewer Conditions

10-Day Weather Forecast

Almanac

Astronomy

Nov. 24, 2014 Rise Set
Actual Time
Civil Twilight
Nautical Twilight
Astronomical Twilight
Moon
Length of Visible Light
Length of Day
Tomorrow will be .
, % of the Moon is Illuminated

Today's Extremes

State Highs State Lows

Community

WunderPhotos

Upload Photos

1,773,320 photos uploaded!

WunderBlogs® & News

Nearby

Air Quality

  Air Quality AQ Index Pollutant
Not available.

Snow Depth

Station Depth Elevation

Earthquake Activity

City Distance Mag. Time & Date
Minimum magnitude displayed is 2.5.

Coastal Water Temperatures

Place Temperature

Nearby Weather Stations